Time,TemperatureF,DewpointF,PressureIn,WindDirection,WindDirectionDegrees,WindSpeedMPH,WindSpeedGustMPH,Humidity,HourlyPrecipIn,Conditions,Clouds,dailyrainin,SoftwareType,DateUTC
2013-10-06 00:01:00,66.2,65.0,29.81,SSW,194,5.0,11.0,96,0.01,,---,0.00,VWS V14.01,2013-10-06 04:01:00,
2013-10-06 00:16:00,66.2,65.0,29.81,SSE,159,8.0,10.0,96,0.01,,---,0.00,VWS V14.01,2013-10-06 04:16:00,
2013-10-06 00:31:00,66.0,64.8,29.80,SSW,198,5.0,11.0,96,0.01,,---,0.00,VWS V14.01,2013-10-06 04:31:00,
2013-10-06 00:46:00,65.8,64.3,29.80,SSW,196,6.0,12.0,95,0.01,,---,0.00,VWS V14.01,2013-10-06 04:46:00,
2013-10-06 01:01:00,65.6,64.1,29.79,SE,144,6.0,10.0,95,0.00,,---,0.00,VWS V14.01,2013-10-06 05:01:00,
2013-10-06 01:16:00,65.5,64.0,29.78,South,190,5.0,11.0,95,0.00,,---,0.00,VWS V14.01,2013-10-06 05:16:00,
2013-10-06 01:31:00,65.5,64.3,29.77,SSE,167,4.0,10.0,96,0.00,,---,0.00,VWS V14.01,2013-10-06 05:31:00,
2013-10-06 01:46:00,65.5,64.3,29.77,SSW,192,0.0,8.0,96,0.00,,---,0.00,VWS V14.01,2013-10-06 05:46:00,
2013-10-06 02:01:00,65.6,64.4,29.77,SSE,166,3.0,8.0,96,0.00,,---,0.00,VWS V14.01,2013-10-06 06:01:00,
2013-10-06 02:16:00,65.6,64.4,29.76,South,181,1.0,8.0,96,0.00,,---,0.00,VWS V14.01,2013-10-06 06:16:00,
2013-10-06 02:31:00,65.7,64.5,29.77,South,178,3.0,9.0,96,0.00,,---,0.00,VWS V14.01,2013-10-06 06:31:00,
2013-10-06 02:46:00,65.7,64.5,29.77,South,170,4.0,10.0,96,0.00,,---,0.00,VWS V14.01,2013-10-06 06:46:00,
2013-10-06 03:01:00,65.7,64.5,29.78,South,170,3.0,8.0,96,0.00,,---,0.00,VWS V14.01,2013-10-06 07:01:00,
2013-10-06 03:16:00,65.5,64.3,29.78,SSW,195,2.0,11.0,96,0.00,,---,0.00,VWS V14.01,2013-10-06 07:16:00,
2013-10-06 03:31:00,65.3,64.1,29.77,SSE,162,5.0,10.0,96,0.00,,---,0.00,VWS V14.01,2013-10-06 07:31:00,
2013-10-06 03:46:00,65.0,63.8,29.75,South,188,0.0,11.0,96,0.00,,---,0.00,VWS V14.01,2013-10-06 07:46:00,
2013-10-06 04:01:00,64.9,64.0,29.75,SE,130,1.0,8.0,97,0.00,,---,0.00,VWS V14.01,2013-10-06 08:01:00,
2013-10-06 04:16:00,64.9,64.0,29.74,South,180,0.0,7.0,97,0.00,,---,0.00,VWS V14.01,2013-10-06 08:16:00,
2013-10-06 04:31:00,64.8,63.9,29.74,South,184,3.0,9.0,97,0.00,,---,0.00,VWS V14.01,2013-10-06 08:31:00,
2013-10-06 04:46:00,64.8,63.9,29.74,SSW,207,2.0,9.0,97,0.01,,---,0.01,VWS V14.01,2013-10-06 08:46:00,
2013-10-06 05:01:00,64.8,63.9,29.74,South,189,5.0,9.0,97,0.01,,---,0.01,VWS V14.01,2013-10-06 09:01:00,
2013-10-06 05:16:00,64.9,64.0,29.75,South,188,3.0,9.0,97,0.01,,---,0.01,VWS V14.01,2013-10-06 09:16:00,
2013-10-06 05:31:00,65.0,63.8,29.75,SSE,168,3.0,8.0,96,0.01,,---,0.01,VWS V14.01,2013-10-06 09:31:00,
2013-10-06 05:46:00,65.1,63.9,29.75,SSW,209,2.0,10.0,96,0.01,,---,0.01,VWS V14.01,2013-10-06 09:46:00,
2013-10-06 06:01:00,65.1,63.9,29.75,SSW,202,4.0,9.0,96,0.00,,---,0.01,VWS V14.01,2013-10-06 10:01:00,
2013-10-06 06:16:00,65.0,63.8,29.74,SW,224,0.0,8.0,96,0.00,,---,0.01,VWS V14.01,2013-10-06 10:16:00,
2013-10-06 06:31:00,65.0,63.8,29.75,SW,218,3.0,6.0,96,0.00,,---,0.01,VWS V14.01,2013-10-06 10:31:00,
2013-10-06 06:46:00,59.6,57.9,29.76,WNW,291,6.0,13.0,94,0.00,,---,0.01,VWS V14.01,2013-10-06 10:46:00,
2013-10-06 07:01:00,58.5,57.1,29.76,West,265,8.0,13.0,95,0.00,,---,0.01,VWS V14.01,2013-10-06 11:01:00,
2013-10-06 07:16:00,58.1,57.0,29.75,West,275,8.0,11.0,96,0.00,,---,0.01,VWS V14.01,2013-10-06 11:16:00,
2013-10-06 07:31:00,58.0,56.6,29.75,WNW,300,7.0,9.0,95,0.00,,---,0.01,VWS V14.01,2013-10-06 11:31:00,
2013-10-06 07:46:00,57.7,56.6,29.75,WNW,283,5.0,8.0,96,0.00,,---,0.01,VWS V14.01,2013-10-06 11:46:00,
2013-10-06 08:01:00,57.3,56.2,29.74,WNW,294,3.0,9.0,96,0.00,,---,0.01,VWS V14.01,2013-10-06 12:01:00,
2013-10-06 08:16:00,56.8,55.7,29.74,West,281,4.0,10.0,96,0.00,,---,0.01,VWS V14.01,2013-10-06 12:16:00,
2013-10-06 08:31:00,56.6,55.5,29.75,West,273,5.0,7.0,96,0.00,,---,0.01,VWS V14.01,2013-10-06 12:31:00,
2013-10-06 08:46:00,56.4,55.3,29.75,West,275,3.0,8.0,96,0.00,,---,0.01,VWS V14.01,2013-10-06 12:46:00,
2013-10-06 09:01:00,55.7,54.9,29.75,West,259,8.0,8.0,97,0.00,,---,0.01,VWS V14.01,2013-10-06 13:01:00,
2013-10-06 09:16:00,54.4,53.3,29.75,WNW,289,3.0,11.0,96,0.00,,---,0.01,VWS V14.01,2013-10-06 13:16:00,
2013-10-06 09:31:00,53.9,53.1,29.75,WNW,290,3.0,11.0,97,0.00,,---,0.01,VWS V14.01,2013-10-06 13:31:00,
2013-10-06 09:46:00,53.7,52.6,29.75,WNW,288,5.0,8.0,96,0.00,,---,0.01,VWS V14.01,2013-10-06 13:46:00,
2013-10-06 10:01:00,53.5,52.4,29.77,West,261,7.0,10.0,96,0.00,,---,0.01,VWS V14.01,2013-10-06 14:01:00,
2013-10-06 10:16:00,53.4,52.6,29.77,WSW,251,3.0,8.0,97,0.00,,---,0.01,VWS V14.01,2013-10-06 14:16:00,
2013-10-06 10:31:00,53.5,52.7,29.75,WSW,251,2.0,5.0,97,0.00,,---,0.01,VWS V14.01,2013-10-06 14:31:00,
2013-10-06 10:46:00,53.6,52.8,29.75,West,269,4.0,7.0,97,0.00,,---,0.01,VWS V14.01,2013-10-06 14:46:00,
2013-10-06 11:01:00,53.8,53.0,29.76,WSW,244,4.0,7.0,97,0.01,,---,0.02,VWS V14.01,2013-10-06 15:01:00,
2013-10-06 11:16:00,53.4,52.6,29.76,SW,233,6.0,12.0,97,0.01,,---,0.02,VWS V14.01,2013-10-06 15:16:00,
2013-10-06 11:31:00,52.2,51.1,29.77,West,271,8.0,12.0,96,0.01,,---,0.02,VWS V14.01,2013-10-06 15:31:00,
2013-10-06 11:46:00,50.2,49.1,29.77,WSW,257,4.0,10.0,96,0.01,,---,0.02,VWS V14.01,2013-10-06 15:46:00,
2013-10-06 12:01:00,50.2,48.8,29.76,West,262,3.0,6.0,95,0.01,,---,0.02,VWS V14.01,2013-10-06 16:01:00,
2013-10-06 12:16:00,50.6,49.2,29.76,West,262,1.0,5.0,95,0.00,,---,0.02,VWS V14.01,2013-10-06 16:16:00,
2013-10-06 12:31:00,50.8,49.1,29.76,West,262,3.0,6.0,94,0.00,,---,0.02,VWS V14.01,2013-10-06 16:31:00,
2013-10-06 12:46:00,51.1,49.4,29.76,West,262,0.0,5.0,94,0.00,,---,0.02,VWS V14.01,2013-10-06 16:46:00,
2013-10-06 13:01:00,51.4,49.7,29.75,West,262,0.0,3.0,94,0.00,,---,0.02,VWS V14.01,2013-10-06 17:01:00,
2013-10-06 13:16:00,51.8,50.1,29.75,West,262,1.0,4.0,94,0.00,,---,0.02,VWS V14.01,2013-10-06 17:16:00,
2013-10-06 13:31:00,52.3,50.3,29.74,West,263,4.0,5.0,93,0.00,,---,0.02,VWS V14.01,2013-10-06 17:31:00,
2013-10-06 13:46:00,53.0,51.0,29.73,West,261,4.0,6.0,93,0.00,,---,0.02,VWS V14.01,2013-10-06 17:46:00,
2013-10-06 14:01:00,54.8,52.2,29.73,West,261,6.0,8.0,91,0.00,,---,0.02,VWS V14.01,2013-10-06 18:01:00,
2013-10-06 14:16:00,55.1,51.3,29.73,WNW,285,6.0,10.0,87,0.00,,---,0.02,VWS V14.01,2013-10-06 18:16:00,
2013-10-06 14:31:00,55.7,50.0,29.72,WSW,250,6.0,9.0,81,0.00,,---,0.02,VWS V14.01,2013-10-06 18:31:00,
2013-10-06 14:46:00,56.9,50.5,29.71,WSW,254,5.0,9.0,79,0.00,,---,0.02,VWS V14.01,2013-10-06 18:46:00,
2013-10-06 15:01:00,58.5,51.3,29.70,SW,232,3.0,10.0,77,0.00,,---,0.02,VWS V14.01,2013-10-06 19:01:00,
2013-10-06 15:16:00,58.2,50.0,29.70,WSW,257,8.0,8.0,74,0.00,,---,0.02,VWS V14.01,2013-10-06 19:16:00,
2013-10-06 15:31:00,58.4,50.9,29.70,SW,221,3.0,8.0,76,0.00,,---,0.02,VWS V14.01,2013-10-06 19:31:00,
2013-10-06 15:46:00,59.4,51.5,29.70,West,264,6.0,6.0,75,0.00,,---,0.02,VWS V14.01,2013-10-06 19:46:00,
2013-10-06 16:16:00,59.4,51.1,29.70,SSE,159,2.0,7.0,74,0.01,,---,0.03,VWS V14.01,2013-10-06 20:16:00,
2013-10-06 16:31:00,59.7,50.3,29.69,WSW,245,3.0,7.0,71,0.01,,---,0.03,VWS V14.01,2013-10-06 20:31:00,
2013-10-06 16:46:00,59.6,49.4,29.69,WSW,248,5.0,7.0,69,0.01,,---,0.03,VWS V14.01,2013-10-06 20:46:00,
2013-10-06 17:01:00,60.8,49.4,29.69,WNW,292,3.0,9.0,66,0.01,,---,0.03,VWS V14.01,2013-10-06 21:01:00,
2013-10-06 17:16:00,60.0,48.6,29.69,West,261,4.0,11.0,66,0.00,,---,0.03,VWS V14.01,2013-10-06 21:16:00,
2013-10-06 17:31:00,59.4,49.6,29.69,WNW,283,1.0,8.0,70,0.00,,---,0.03,VWS V14.01,2013-10-06 21:31:00,
2013-10-06 17:46:00,59.5,49.3,29.70,West,281,5.0,6.0,69,0.00,,---,0.03,VWS V14.01,2013-10-06 21:46:00,
2013-10-06 18:01:00,58.9,51.0,29.70,West,281,2.0,5.0,75,0.00,,---,0.03,VWS V14.01,2013-10-06 22:01:00,
2013-10-06 18:16:00,58.0,51.5,29.71,WNW,283,1.0,6.0,79,0.00,,---,0.03,VWS V14.01,2013-10-06 22:16:00,
2013-10-06 18:31:00,57.6,51.5,29.71,WNW,283,0.0,3.0,80,0.00,,---,0.03,VWS V14.01,2013-10-06 22:31:00,
2013-10-06 18:46:00,57.3,51.5,29.71,WNW,283,1.0,2.0,81,0.00,,---,0.03,VWS V14.01,2013-10-06 22:46:00,
2013-10-06 19:01:00,57.2,50.8,29.72,WNW,283,2.0,4.0,79,0.00,,---,0.03,VWS V14.01,2013-10-06 23:01:00,
2013-10-06 19:16:00,57.0,50.6,29.71,WNW,283,0.0,5.0,79,0.00,,---,0.03,VWS V14.01,2013-10-06 23:16:00,
2013-10-06 19:31:00,56.8,48.6,29.72,West,271,3.0,7.0,74,0.00,,---,0.03,VWS V14.01,2013-10-06 23:31:00,
2013-10-06 19:46:00,56.6,46.2,29.73,WSW,258,8.0,9.0,68,0.00,,---,0.03,VWS V14.01,2013-10-06 23:46:00,
2013-10-06 20:01:00,55.8,45.0,29.73,WSW,248,10.0,12.0,67,0.01,,---,0.04,VWS V14.01,2013-10-07 00:01:00,
2013-10-06 20:16:00,54.9,44.5,29.74,WSW,247,14.0,15.0,68,0.01,,---,0.04,VWS V14.01,2013-10-07 00:16:00,
2013-10-06 20:31:00,54.3,44.7,29.75,West,266,9.0,14.0,70,0.01,,---,0.04,VWS V14.01,2013-10-07 00:31:00,
2013-10-06 20:46:00,53.8,43.9,29.76,WSW,250,12.0,12.0,69,0.01,,---,0.04,VWS V14.01,2013-10-07 00:46:00,
2013-10-06 21:01:00,53.3,44.2,29.76,West,262,9.0,12.0,71,0.01,,---,0.04,VWS V14.01,2013-10-07 01:01:00,
2013-10-06 21:16:00,52.8,43.3,29.77,WSW,257,9.0,17.0,70,0.00,,---,0.04,VWS V14.01,2013-10-07 01:16:00,
2013-10-06 21:31:00,52.1,43.4,29.77,WSW,258,8.0,16.0,72,0.00,,---,0.04,VWS V14.01,2013-10-07 01:31:00,
2013-10-06 21:46:00,51.4,43.8,29.77,WSW,238,3.0,10.0,75,0.00,,---,0.04,VWS V14.01,2013-10-07 01:46:00,
2013-10-06 22:01:00,50.7,42.7,29.77,SW,234,5.0,13.0,74,0.00,,---,0.04,VWS V14.01,2013-10-07 02:01:00,
2013-10-06 22:16:00,49.8,41.9,29.78,WSW,249,5.0,15.0,74,0.00,,---,0.04,VWS V14.01,2013-10-07 02:16:00,
2013-10-06 22:31:00,48.8,41.6,29.78,WSW,255,5.0,13.0,76,0.00,,---,0.04,VWS V14.01,2013-10-07 02:31:00,
2013-10-06 22:46:00,48.1,41.2,29.78,WSW,238,7.0,11.0,77,0.00,,---,0.04,VWS V14.01,2013-10-07 02:46:00,
2013-10-06 23:01:00,47.5,41.3,29.78,WSW,252,3.0,10.0,79,0.00,,---,0.04,VWS V14.01,2013-10-07 03:01:00,
2013-10-06 23:16:00,46.9,41.1,29.78,SW,224,3.0,8.0,80,0.00,,---,0.04,VWS V14.01,2013-10-07 03:16:00,
2013-10-06 23:31:00,46.3,41.4,29.78,SSW,212,4.0,6.0,83,0.00,,---,0.04,VWS V14.01,2013-10-07 03:31:00,
2013-10-06 23:46:00,46.0,41.4,29.77,SW,236,4.0,8.0,84,0.00,,---,0.04,VWS V14.01,2013-10-07 03:46:00,